Saint Thomas, Virgin Islands
Current Conditions -  °F | °C
As of 11:00 AM on Saturday 27 Dec 2014 (Local Time) from TUPJ Reporting Station
Scattered Clouds Scattered Clouds  
Wind Chill: 84°   Ceiling: Unl
Heat Index: 88°   Visibility: 6mi
Dew Point: 70°   Wind: 8mph
Humidity: 62%   Direction: 80°E
Pressure: 30.09"   Gusts: NA
Location:  18.34°N, 64.97°W
Report Text: TUPJ 271500Z 08007KT 9999 SCT020 29/21 Q1019 RMK A3012
Loading
Personal Weather Stations






























Interactive Weather Map New forecast layout! Learn more

10-Day Weather Forecast

Advertisements
Track Severe Weather on mobile